Weather at St. Mary's Airport

Public forecast

Using degrees Celsius for public forecast. Weather courtesy of forecast.io.

Current aviation weather report (METAR) for St. Mary's Airport

Retrieved 2021/03/02 11:20 UTC (1 hour ago):

EGHE 021120Z 09020KT 3000 HZ SCT008 10/07 Q1025

Closest aviation forecast (TAF) to St. Mary's Airport

Forecast is more than 12 hours old.

Closest forecast is RNAS Culdrose, 41.3 nm (76.5 km) ENE. Retrieved 2016/10/07 12:45 UTC (4 years ago):

TAF TAF EGDR 071134Z 0712/0724 11015KT 9999 SCT025 PROB30 TEMPO 0712/0715 7000 -SHRA FEW012 BKN020 BECMG 0721/0723 9999 BKN022